Time;durP1;ratioP1;P1;durP2;ratioP2;P2;SDS_P1;SDS_P2;PMS_P1;PMS_P2;Temp;Humidity;BMP_temperature;BMP_pressure;BME280_temperature;BME280_humidity;BME280_pressure;Samples;Min_cycle;Max_cycle;Signal;HPM_P1;HPM_P2
2022/08/01 00:01:37;;;;;;;2.65;2.40;;;;;;;19.76;66.12;94759.28;5001550;28;20207;-78
2022/08/01 00:04:03;;;;;;;3.40;2.63;;;;;;;19.65;66.96;94755.00;4995842;28;20335;-78
2022/08/01 00:06:29;;;;;;;4.30;2.50;;;;;;;19.59;66.94;94762.25;4996633;28;20578;-78
2022/08/01 00:08:55;;;;;;;2.30;1.92;;;;;;;19.51;67.46;94759.31;4997607;28;20189;-78
2022/08/01 00:11:21;;;;;;;3.58;2.30;;;;;;;19.42;67.38;94760.88;5010270;28;20203;-78
2022/08/01 00:13:46;;;;;;;3.78;2.15;;;;;;;19.40;67.49;94752.34;5008883;28;20335;-78
2022/08/01 00:16:12;;;;;;;3.70;2.38;;;;;;;19.60;67.26;94763.03;5013429;28;20685;-79
2022/08/01 00:18:37;;;;;;;3.67;2.40;;;;;;;19.72;67.28;94762.78;5008733;28;21020;-79
2022/08/01 00:21:04;;;;;;;2.67;2.45;;;;;;;19.77;66.73;94762.75;5011581;28;20243;-78
2022/08/01 00:23:29;;;;;;;3.13;2.83;;;;;;;19.88;66.34;94765.13;5005205;28;20259;-79
2022/08/01 00:25:55;;;;;;;2.85;2.45;;;;;;;19.98;66.60;94769.63;5028343;28;20255;-79
2022/08/01 00:28:20;;;;;;;2.70;2.47;;;;;;;20.01;66.54;94774.44;5033089;28;20175;-79
2022/08/01 00:30:45;;;;;;;3.95;2.30;;;;;;;19.96;66.90;94777.94;5033307;28;20191;-79
2022/08/01 00:33:11;;;;;;;3.67;2.92;;;;;;;19.87;66.92;94771.56;5032958;28;20267;-79
2022/08/01 00:35:36;;;;;;;3.25;2.92;;;;;;;19.84;67.33;94772.09;5016264;28;20178;-79
2022/08/01 00:38:02;;;;;;;3.42;2.90;;;;;;;19.53;67.29;94733.16;5024670;28;20178;-79
2022/08/01 00:40:27;;;;;;;4.82;3.40;;;;;;;19.71;68.10;94775.31;5031936;28;20187;-78
2022/08/01 00:42:53;;;;;;;4.50;3.70;;;;;;;19.72;68.43;94776.13;5025320;28;20176;-79
2022/08/01 00:45:18;;;;;;;7.93;4.78;;;;;;;19.69;68.86;94777.47;5016886;28;20626;-79
2022/08/01 00:47:44;;;;;;;4.43;3.72;;;;;;;19.65;68.85;94765.69;5012955;28;20187;-79
2022/08/01 00:50:10;;;;;;;5.70;4.53;;;;;;;19.50;69.31;94755.03;5026865;28;20245;-79
2022/08/01 00:52:36;;;;;;;9.65;3.88;;;;;;;19.53;69.77;94770.53;5023563;28;20180;-79
2022/08/01 00:55:02;;;;;;;4.50;3.35;;;;;;;19.48;69.72;94767.84;5017109;28;20235;-79
2022/08/01 00:57:28;;;;;;;4.25;3.80;;;;;;;19.43;69.94;94768.63;5016728;28;20653;-79
2022/08/01 00:59:53;;;;;;;4.43;4.03;;;;;;;19.32;70.15;94747.53;5012499;28;20564;-78
2022/08/01 01:02:19;;;;;;;8.68;4.40;;;;;;;19.35;70.55;94755.03;4994730;28;20235;-78
2022/08/01 01:04:45;;;;;;;9.32;4.13;;;;;;;19.29;70.79;94746.19;5012759;28;20654;-78
2022/08/01 01:07:29;;;;;;;5.43;3.40;;;;;;;19.23;71.23;94744.59;5019958;28;20169;-78
2022/08/01 01:10:09;;;;;;;9.63;5.05;;;;;;;19.15;71.56;94745.94;5021973;28;20214;-78
2022/08/01 01:12:36;;;;;;;4.50;3.80;;;;;;;19.09;71.62;94743.53;5032074;28;20168;-78
2022/08/01 01:15:09;;;;;;;7.55;3.53;;;;;;;18.92;71.99;94727.00;5021511;28;20701;-78
2022/08/01 01:17:47;;;;;;;7.57;4.13;;;;;;;18.94;72.56;94744.31;5012431;28;20176;-78
2022/08/01 01:20:13;;;;;;;5.78;4.32;;;;;;;18.83;72.88;94748.06;5012355;28;20212;-79
2022/08/01 01:23:02;;;;;;;6.53;4.65;;;;;;;18.76;72.79;94744.84;5012339;28;20291;-78
2022/08/01 01:25:37;;;;;;;6.60;4.10;;;;;;;18.71;72.14;94731.47;4996695;28;20345;-78
2022/08/01 01:28:27;;;;;;;6.38;3.85;;;;;;;18.69;72.45;94737.06;5012050;28;20179;-78
2022/08/01 01:30:57;;;;;;;9.77;4.28;;;;;;;18.56;72.13;94718.91;5012219;28;20184;-78
2022/08/01 01:33:25;;;;;;;7.45;4.78;;;;;;;18.68;71.85;94732.03;5011972;28;20172;-78
2022/08/01 01:35:56;;;;;;;10.25;6.55;;;;;;;18.66;71.64;94728.81;5011982;28;20172;-78
2022/08/01 01:38:25;;;;;;;6.13;3.70;;;;;;;18.67;71.39;94727.75;5011940;28;20169;-78
2022/08/01 01:40:52;;;;;;;8.43;5.80;;;;;;;18.64;71.61;94722.94;5012364;28;20586;-78
2022/08/01 01:43:20;;;;;;;5.90;3.38;;;;;;;18.62;71.63;94717.06;5011684;28;20176;-78
2022/08/01 01:45:47;;;;;;;6.35;3.80;;;;;;;18.55;71.95;94708.50;5011783;28;20172;-78
2022/08/01 01:48:16;;;;;;;8.73;4.72;;;;;;;18.55;71.72;94713.81;5011942;28;20165;-78
2022/08/01 01:50:47;;;;;;;5.63;3.22;;;;;;;18.51;71.51;94713.53;5011650;28;20223;-78
2022/08/01 01:53:15;;;;;;;4.18;3.25;;;;;;;18.46;71.98;94709.00;5011701;28;20168;-78
2022/08/01 01:55:43;;;;;;;11.85;6.03;;;;;;;18.44;72.48;94711.13;5011985;28;20171;-78
2022/08/01 01:58:13;;;;;;;11.50;7.20;;;;;;;18.48;72.40;94709.56;5011710;28;20180;-78
2022/08/01 02:00:40;;;;;;;9.32;5.40;;;;;;;18.45;72.03;94712.75;5011656;28;20180;-78
2022/08/01 02:03:10;;;;;;;8.73;5.57;;;;;;;18.43;72.23;94714.06;5011911;28;20172;-78
2022/08/01 02:05:37;;;;;;;18.88;4.40;;;;;;;18.37;71.71;94702.59;5011554;28;20176;-78
2022/08/01 02:08:05;;;;;;;8.23;4.13;;;;;;;18.39;72.01;94702.34;5011384;28;20176;-78
2022/08/01 02:10:32;;;;;;;5.20;3.70;;;;;;;18.43;71.86;94700.72;5011405;28;20192;-78
2022/08/01 02:13:02;;;;;;;7.30;3.03;;;;;;;18.39;71.50;94702.34;5011527;28;20180;-78
2022/08/01 02:15:29;;;;;;;4.10;2.80;;;;;;;18.34;71.35;94689.78;5011122;28;20569;-78
2022/08/01 02:17:56;;;;;;;8.93;3.78;;;;;;;18.23;71.55;94674.84;5011247;28;20468;-78
2022/08/01 02:20:22;;;;;;;5.95;3.20;;;;;;;18.37;70.50;94693.78;5010383;28;20274;-78
2022/08/01 02:22:55;;;;;;;3.08;2.60;;;;;;;18.38;70.90;94692.72;5010403;28;20579;-78
2022/08/01 02:25:33;;;;;;;5.10;2.30;;;;;;;18.40;71.04;94695.94;5010419;28;20188;-78
2022/08/01 02:28:06;;;;;;;4.85;2.15;;;;;;;18.38;70.56;94701.53;5012292;28;20318;-78
2022/08/01 02:30:36;;;;;;;5.03;3.13;;;;;;;18.36;70.04;94689.53;5015274;28;20246;-78
2022/08/01 02:33:11;;;;;;;5.03;3.78;;;;;;;18.37;69.59;94701.78;5007296;28;20219;-78
2022/08/01 02:35:40;;;;;;;4.95;2.50;;;;;;;18.34;69.57;94702.31;5015102;28;20172;-78
2022/08/01 02:38:09;;;;;;;2.25;2.05;;;;;;;18.21;69.74;94686.81;5014937;28;20283;-78
2022/08/01 02:40:41;;;;;;;6.15;3.08;;;;;;;18.30;68.84;94706.56;5015136;28;20195;-78
2022/08/01 02:43:10;;;;;;;3.58;2.30;;;;;;;18.30;69.28;94704.72;5014789;28;20165;-78
2022/08/01 02:45:42;;;;;;;6.25;2.55;;;;;;;18.26;69.02;94702.81;5014898;28;20243;-77
2022/08/01 02:48:13;;;;;;;4.90;2.40;;;;;;;18.25;68.68;94695.91;4997230;28;20179;-77
2022/08/01 02:50:42;;;;;;;3.47;2.22;;;;;;;18.22;69.59;94691.09;5014582;28;20223;-78
2022/08/01 02:53:11;;;;;;;5.45;2.47;;;;;;;18.05;69.68;94662.00;5014563;28;20176;-78
2022/08/01 02:55:39;;;;;;;6.20;2.28;;;;;;;18.26;69.82;94694.81;5014618;28;20206;-78
2022/08/01 02:58:06;;;;;;;5.50;2.80;;;;;;;18.25;69.23;94698.56;5014608;28;20184;-78
2022/08/01 03:00:34;;;;;;;6.85;2.05;;;;;;;18.01;68.85;94672.38;5014529;28;20169;-78
2022/08/01 03:03:01;;;;;;;5.05;2.53;;;;;;;17.95;69.33;94667.28;5014492;28;20529;-78
2022/08/01 03:05:27;;;;;;;3.72;2.50;;;;;;;18.13;69.39;94695.31;5014411;28;20172;-77
2022/08/01 03:07:55;;;;;;;4.53;2.47;;;;;;;18.13;69.87;94696.13;5014340;28;20176;-78
2022/08/01 03:10:21;;;;;;;4.93;3.78;;;;;;;18.12;70.06;94691.84;5014246;28;20678;-78
2022/08/01 03:12:49;;;;;;;4.80;2.67;;;;;;;18.07;69.94;94695.28;5014228;28;20180;-78
2022/08/01 03:15:16;;;;;;;3.65;2.55;;;;;;;18.03;70.05;94696.09;4996826;28;20228;-78
2022/08/01 03:17:46;;;;;;;4.22;3.55;;;;;;;18.01;70.19;94699.00;5014481;28;20168;-78
2022/08/01 03:20:15;;;;;;;6.80;3.08;;;;;;;17.93;69.80;94706.69;4980487;28;20232;-78
2022/08/01 03:22:43;;;;;;;3.28;2.50;;;;;;;17.93;70.45;94706.69;5014616;28;20195;-78
2022/08/01 03:25:10;;;;;;;7.35;3.28;;;;;;;17.75;70.70;94681.31;5014375;28;20199;-78
2022/08/01 03:27:36;;;;;;;11.50;3.67;;;;;;;17.71;70.79;94678.38;5014429;28;20318;-78
2022/08/01 03:30:04;;;;;;;6.35;4.18;;;;;;;17.83;70.91;94706.66;5002165;28;20668;-78
2022/08/01 03:32:30;;;;;;;5.13;3.28;;;;;;;17.80;71.07;94691.19;5017067;28;20629;-78
2022/08/01 03:34:57;;;;;;;8.32;4.00;;;;;;;17.91;71.79;94703.47;5014682;28;20176;-78
2022/08/01 03:37:36;;;;;;;9.68;3.50;;;;;;;17.82;71.30;94684.53;5023058;28;20668;-78
2022/08/01 03:40:13;;;;;;;8.73;3.83;;;;;;;17.90;71.54;94709.91;5001297;28;20182;-78
2022/08/01 03:42:44;;;;;;;2.53;2.33;;;;;;;17.79;70.91;94706.38;5017066;28;20180;-79
2022/08/01 03:45:15;;;;;;;3.72;2.80;;;;;;;17.69;71.09;94701.78;5013947;28;20215;-78
2022/08/01 03:47:43;;;;;;;5.60;3.35;;;;;;;17.71;71.43;94696.22;5013700;28;20625;-81
2022/08/01 03:50:11;;;;;;;8.02;4.07;;;;;;;17.65;71.67;94678.59;5013848;28;20681;-81
2022/08/01 03:52:39;;;;;;;7.18;3.30;;;;;;;17.82;71.78;94684.53;5019459;28;20260;-81
2022/08/01 03:55:07;;;;;;;8.52;3.75;;;;;;;17.95;72.17;94696.59;5013574;28;20642;-81
2022/08/01 03:57:34;;;;;;;7.05;3.42;;;;;;;18.04;72.38;94695.84;5014736;28;20267;-81
2022/08/01 04:00:00;;;;;;;15.43;3.45;;;;;;;18.15;72.47;94696.69;5013654;28;20180;-81
2022/08/01 04:02:29;;;;;;;7.93;3.30;;;;;;;18.25;71.95;94704.69;5013923;28;20176;-81
2022/08/01 04:04:55;;;;;;;5.85;3.00;;;;;;;18.33;71.74;94700.72;5013754;28;20188;-81
2022/08/01 04:07:32;;;;;;;10.05;3.20;;;;;;;18.44;70.83;94703.13;5014165;28;20179;-81
2022/08/01 04:09:58;;;;;;;4.72;2.80;;;;;;;18.26;69.31;94658.31;5012936;28;20204;-81
2022/08/01 04:12:23;;;;;;;5.20;3.38;;;;;;;18.63;68.74;94700.81;5013510;28;20179;-81
2022/08/01 04:14:49;;;;;;;7.57;4.15;;;;;;;18.66;68.70;94676.28;5013834;28;20188;-81
2022/08/01 04:17:16;;;;;;;6.32;3.25;;;;;;;19.04;68.40;94703.50;5013148;28;20192;-81
2022/08/01 04:19:42;;;;;;;4.93;3.40;;;;;;;19.01;67.49;94686.19;5006523;28;20296;-81
2022/08/01 04:22:10;;;;;;;8.27;3.33;;;;;;;19.28;67.73;94703.78;4993143;28;20228;-81
2022/08/01 04:24:36;;;;;;;6.18;4.22;;;;;;;19.30;67.41;94677.59;4992437;28;20725;-81
2022/08/01 04:27:05;;;;;;;4.53;3.67;;;;;;;19.57;66.71;94723.50;4993015;28;20263;-81
2022/08/01 04:29:32;;;;;;;5.55;3.60;;;;;;;19.56;67.02;94693.34;4992569;28;20173;-81
2022/08/01 04:32:01;;;;;;;7.47;3.67;;;;;;;19.86;66.37;94713.84;4993014;28;20259;-80
2022/08/01 04:34:30;;;;;;;5.70;3.78;;;;;;;20.07;65.61;94705.72;4992517;28;20194;-80
2022/08/01 04:36:56;;;;;;;8.45;3.40;;;;;;;20.34;65.33;94717.69;4992505;28;20188;-80
2022/08/01 04:39:27;;;;;;;5.75;3.72;;;;;;;20.44;63.08;94694.63;4992613;28;20193;-80
2022/08/01 04:41:57;;;;;;;9.85;3.70;;;;;;;20.74;63.02;94715.88;4975359;28;20655;-81
2022/08/01 04:44:24;;;;;;;6.13;4.10;;;;;;;21.13;63.21;94726.56;4992448;28;20267;-80
2022/08/01 04:46:54;;;;;;;9.75;4.05;;;;;;;21.48;62.08;94728.16;4990574;28;20184;-79
2022/08/01 04:49:20;;;;;;;9.88;4.68;;;;;;;21.95;60.86;94723.97;4991637;28;20195;-79
2022/08/01 04:51:57;;;;;;;13.13;4.57;;;;;;;22.46;59.54;94726.88;4991514;28;20207;-80
2022/08/01 04:54:24;;;;;;;9.80;5.55;;;;;;;22.98;58.15;94725.09;4991973;28;20553;-80
2022/08/01 04:56:50;;;;;;;11.15;6.53;;;;;;;23.23;56.59;94706.69;4990940;28;20173;-80
2022/08/01 05:02:00;;;;;;;12.93;4.72;;;;;;;24.28;54.05;94731.22;4990282;28;20669;-80
2022/08/01 05:04:25;;;;;;;8.70;4.97;;;;;;;24.72;53.08;94726.00;4990989;28;20176;-80
2022/08/01 05:06:51;;;;;;;13.98;5.38;;;;;;;25.24;51.97;94717.56;4990882;28;20643;-80
2022/08/01 05:09:16;;;;;;;14.63;6.10;;;;;;;25.77;50.12;94721.09;4991027;28;20580;-79
2022/08/01 05:11:41;;;;;;;12.02;5.18;;;;;;;26.32;49.14;94723.44;4973680;28;20208;-80
2022/08/01 05:14:07;;;;;;;14.25;6.45;;;;;;;26.86;47.19;94713.22;4991174;28;20181;-80
2022/08/01 05:16:32;;;;;;;16.80;5.57;;;;;;;27.44;46.27;94707.34;4991888;28;20181;-80
2022/08/01 05:18:57;;;;;;;7.80;4.68;;;;;;;28.12;44.50;94722.63;4991853;28;20181;-80
2022/08/01 05:21:23;;;;;;;13.57;5.97;;;;;;;28.84;43.02;94720.88;4966701;28;1282329;-80
2022/08/01 05:23:48;;;;;;;11.07;5.80;;;;;;;29.51;41.64;94730.75;5012177;28;20584;-80
2022/08/01 05:26:14;;;;;;;6.65;4.10;;;;;;;30.09;40.94;94720.78;5012529;28;20267;-80
2022/08/01 05:28:39;;;;;;;11.10;5.32;;;;;;;30.59;40.06;94706.91;5012650;28;20700;-80
2022/08/01 05:31:06;;;;;;;9.88;4.10;;;;;;;31.24;38.46;94721.28;5011873;28;20192;-79
2022/08/01 05:33:31;;;;;;;7.05;3.92;;;;;;;31.85;37.12;94724.59;5011994;28;20203;-79
2022/08/01 05:35:56;;;;;;;11.63;5.20;;;;;;;32.37;36.10;94715.44;5012073;28;20181;-80
2022/08/01 05:38:22;;;;;;;10.63;6.68;;;;;;;32.90;35.17;94722.16;5010610;28;20181;-81
2022/08/01 05:40:47;;;;;;;12.60;6.40;;;;;;;33.27;33.63;94728.06;5011889;28;20577;-81
2022/08/01 05:43:13;;;;;;;15.50;8.32;;;;;;;33.67;34.13;94725.75;5012230;28;20231;-84
2022/08/01 05:45:38;;;;;;;10.55;5.90;;;;;;;34.04;32.82;94728.84;4994666;28;20251;-81
2022/08/01 05:48:04;;;;;;;9.00;4.40;;;;;;;34.37;31.46;94731.00;5012222;28;20168;-81
2022/08/01 05:50:29;;;;;;;10.50;5.30;;;;;;;34.41;31.30;94728.34;5012021;28;20283;-81
2022/08/01 05:52:54;;;;;;;88.47;17.95;;;;;;;34.31;31.28;94720.75;5011794;28;20177;-81
2022/08/01 05:55:20;;;;;;;1095.28;169.43;;;;;;;34.42;30.51;94727.94;5011881;28;20249;-81
2022/08/01 05:57:45;;;;;;;4.63;3.05;;;;;;;34.66;29.11;94724.06;5011939;28;20699;-81
2022/08/01 06:00:12;;;;;;;7.50;2.97;;;;;;;34.54;29.86;94685.94;5011555;28;20624;-83
2022/08/01 06:02:42;;;;;;;8.10;5.18;;;;;;;34.88;29.22;94710.72;5011897;28;20199;-81
2022/08/01 06:05:09;;;;;;;56.40;5.75;;;;;;;34.37;28.16;94711.84;5011810;28;20195;-81
2022/08/01 06:07:35;;;;;;;35.72;3.75;;;;;;;34.45;28.98;94723.69;5011867;28;20995;-81
2022/08/01 06:10:00;;;;;;;6.35;2.78;;;;;;;34.48;27.88;94725.72;4994001;28;20200;-81
2022/08/01 06:12:26;;;;;;;3.85;2.08;;;;;;;34.25;27.97;94714.78;5011443;28;20646;-81
2022/08/01 06:14:51;;;;;;;2.72;1.90;;;;;;;33.57;27.37;94712.69;5011300;28;20174;-80
2022/08/01 06:17:16;;;;;;;8.30;2.60;;;;;;;33.25;29.77;94728.44;5011703;28;20187;-80
2022/08/01 06:19:42;;;;;;;2.95;2.45;;;;;;;33.11;29.52;94725.38;5011308;28;20215;-78
2022/08/01 06:22:07;;;;;;;2.83;1.73;;;;;;;33.08;29.29;94722.56;5011749;28;20195;-80
2022/08/01 06:24:33;;;;;;;4.00;1.83;;;;;;;32.77;29.82;94712.53;5011882;28;20184;-82
2022/08/01 06:26:58;;;;;;;3.67;1.95;;;;;;;32.47;29.10;94717.63;5011568;28;20184;-82
2022/08/01 06:29:24;;;;;;;9.02;1.90;;;;;;;31.78;30.77;94727.13;5011363;28;20665;-82
2022/08/01 06:31:49;;;;;;;2.85;1.60;;;;;;;31.33;30.35;94721.94;4994088;28;20172;-82
2022/08/01 06:34:15;;;;;;;4.40;1.90;;;;;;;30.17;31.73;94706.31;5010602;28;20180;-81
2022/08/01 06:36:41;;;;;;;13.23;3.47;;;;;;;30.05;34.68;94709.78;5004634;28;20195;-82
2022/08/01 06:39:06;;;;;;;5.70;2.00;;;;;;;30.30;34.71;94716.03;5011209;28;20307;-79
2022/08/01 06:41:31;;;;;;;3.45;2.03;;;;;;;30.30;32.91;94702.44;5011211;28;20231;-79
2022/08/01 06:43:57;;;;;;;6.47;2.17;;;;;;;30.38;32.20;94705.06;5011559;28;20188;-79
2022/08/01 06:46:23;;;;;;;5.10;2.08;;;;;;;30.37;32.40;94711.63;5010900;28;20226;-78
2022/08/01 06:48:48;;;;;;;2.83;1.55;;;;;;;30.51;33.19;94710.50;5010994;28;20256;-79
2022/08/01 06:51:16;;;;;;;5.00;2.90;;;;;;;30.57;34.06;94706.44;5010526;28;20199;-79
2022/08/01 06:53:42;;;;;;;24.20;2.63;;;;;;;30.74;34.10;94711.63;5010765;28;20184;-79
2022/08/01 06:56:08;;;;;;;4.00;1.90;;;;;;;30.34;34.43;94706.88;5010457;28;20184;-77
2022/08/01 06:58:34;;;;;;;2.63;2.25;;;;;;;29.79;33.48;94684.81;5010120;28;20239;-77
2022/08/01 07:01:00;;;;;;;3.63;2.35;;;;;;;29.77;35.51;94692.50;5010395;28;20177;-77
2022/08/01 07:03:26;;;;;;;1.95;1.58;;;;;;;29.46;35.78;94687.56;5010211;28;20188;-78
2022/08/01 07:05:52;;;;;;;4.18;2.15;;;;;;;29.58;36.81;94657.72;5009920;28;20180;-79
2022/08/01 07:08:18;;;;;;;5.25;2.22;;;;;;;30.11;36.11;94691.34;5010234;28;20191;-78
2022/08/01 07:10:43;;;;;;;2.88;2.00;;;;;;;30.07;33.71;94685.00;5010423;28;20197;-78
2022/08/01 07:13:09;;;;;;;5.63;2.10;;;;;;;29.61;35.74;94690.44;5010197;28;20198;-78
2022/08/01 07:15:34;;;;;;;6.43;2.65;;;;;;;29.79;36.42;94696.47;5013813;28;20182;-77
2022/08/01 07:18:03;;;;;;;2.78;1.70;;;;;;;30.16;35.93;94702.00;5014271;28;20180;-78
2022/08/01 07:20:29;;;;;;;2.55;2.08;;;;;;;30.01;33.81;94679.78;5001889;28;20223;-79
2022/08/01 07:22:54;;;;;;;5.00;1.75;;;;;;;30.15;35.90;94695.75;4994761;28;20259;-77
2022/08/01 07:25:20;;;;;;;6.15;2.08;;;;;;;30.33;35.21;94699.84;4994702;28;20259;-77
2022/08/01 07:27:45;;;;;;;5.88;1.60;;;;;;;30.45;34.86;94703.69;4995248;28;20579;-77
2022/08/01 07:30:11;;;;;;;2.65;2.25;;;;;;;30.43;33.81;94708.69;4995457;28;21029;-77
2022/08/01 07:32:37;;;;;;;3.78;2.40;;;;;;;30.09;34.07;94708.00;4978423;28;20689;-77
2022/08/01 07:35:03;;;;;;;3.75;1.75;;;;;;;29.69;34.56;94685.25;4994828;28;20222;-77
2022/08/01 07:37:29;;;;;;;6.70;2.25;;;;;;;29.76;36.55;94702.56;4993904;28;20244;-77
2022/08/01 07:39:54;;;;;;;6.30;2.08;;;;;;;29.84;34.49;94669.09;4993670;28;20272;-77
2022/08/01 07:42:20;;;;;;;8.80;2.38;;;;;;;30.28;34.77;94696.56;4993422;28;20188;-77
2022/08/01 07:44:45;;;;;;;4.85;1.92;;;;;;;30.42;33.16;94696.22;4993514;28;20177;-77
2022/08/01 07:47:10;;;;;;;6.28;2.30;;;;;;;29.43;34.55;94685.50;4993542;28;20180;-78
2022/08/01 07:49:36;;;;;;;9.52;2.10;;;;;;;29.31;36.86;94699.81;4993297;28;20173;-77
2022/08/01 07:52:02;;;;;;;2.60;2.10;;;;;;;29.28;36.32;94667.91;4993569;28;20165;-77
2022/08/01 07:54:28;;;;;;;6.03;1.90;;;;;;;29.45;36.03;94704.97;4993309;28;20227;-78
2022/08/01 07:56:55;;;;;;;7.28;1.90;;;;;;;29.20;35.53;94712.16;4992716;28;20170;-78
2022/08/01 07:59:22;;;;;;;2.00;1.80;;;;;;;28.94;36.81;94706.16;4993938;28;20192;-77
2022/08/01 08:01:51;;;;;;;5.57;1.83;;;;;;;28.91;36.78;94710.31;4993795;28;20162;-76
2022/08/01 08:04:18;;;;;;;7.57;2.00;;;;;;;28.92;36.34;94706.47;4993840;28;20219;-76
2022/08/01 08:06:44;;;;;;;5.45;1.98;;;;;;;28.83;35.84;94703.84;4993370;28;20185;-76
2022/08/01 08:09:10;;;;;;;3.42;2.03;;;;;;;29.08;37.93;94709.38;4993556;28;20185;-77
2022/08/01 08:11:35;;;;;;;2.90;1.98;;;;;;;29.19;37.18;94686.19;4993587;28;20200;-77
2022/08/01 08:14:01;;;;;;;2.92;1.75;;;;;;;29.51;36.38;94704.41;4993383;28;20244;-77
2022/08/01 08:16:26;;;;;;;4.32;2.28;;;;;;;29.38;34.27;94699.28;4993427;28;20251;-78
2022/08/01 08:18:51;;;;;;;5.40;2.20;;;;;;;29.37;35.97;94695.78;4994296;28;20660;-78
2022/08/01 08:21:17;;;;;;;5.38;2.30;;;;;;;29.66;36.54;94700.28;5011465;28;20216;-77
2022/08/01 08:26:26;;;;;;;3.13;1.90;;;;;;;30.20;34.97;94690.09;5011809;28;20669;-77
2022/08/01 08:28:51;;;;;;;5.10;1.70;;;;;;;30.00;35.28;94664.66;5013415;28;20204;-78
2022/08/01 08:31:17;;;;;;;4.60;1.80;;;;;;;30.41;35.29;94700.06;5013356;28;20207;-79
2022/08/01 08:33:42;;;;;;;7.97;1.90;;;;;;;29.95;33.30;94666.78;5013462;28;20179;-79
2022/08/01 08:36:08;;;;;;;6.15;2.20;;;;;;;29.56;35.20;94692.56;4996035;28;20311;-82
2022/08/01 08:38:33;;;;;;;3.67;2.13;;;;;;;29.78;36.82;94694.88;5013757;28;20176;-78
2022/08/01 08:40:59;;;;;;;10.48;2.60;;;;;;;29.84;37.54;94693.53;5013930;28;20650;-80
2022/08/01 08:43:25;;;;;;;6.63;2.63;;;;;;;29.87;36.11;94689.34;5013641;28;20243;-79
2022/08/01 08:45:52;;;;;;;2.75;1.83;;;;;;;29.72;36.45;94679.94;5014031;28;20630;-80
2022/08/01 08:48:17;;;;;;;2.17;1.88;;;;;;;29.60;37.51;94683.41;5013962;28;20597;-80
2022/08/01 08:50:45;;;;;;;3.08;1.88;;;;;;;29.38;36.57;94691.16;5012111;28;20834;-80
2022/08/01 08:53:13;;;;;;;5.20;2.53;;;;;;;28.79;37.49;94670.41;5012903;28;20179;-80
2022/08/01 08:55:42;;;;;;;2.38;2.05;;;;;;;28.58;35.86;94688.50;5013199;28;20172;-80
2022/08/01 08:58:12;;;;;;;3.30;1.75;;;;;;;28.38;38.62;94691.97;5013674;28;20164;-80
2022/08/01 09:00:39;;;;;;;3.42;2.40;;;;;;;28.27;37.90;94667.19;4995765;28;20192;-80
2022/08/01 09:03:04;;;;;;;3.70;2.00;;;;;;;28.42;38.38;94688.28;5013521;28;20180;-79
2022/08/01 09:05:30;;;;;;;8.55;2.00;;;;;;;28.40;38.49;94681.59;5012726;28;20561;-80
2022/08/01 09:07:55;;;;;;;4.07;1.80;;;;;;;28.28;36.65;94673.41;5012571;28;20705;-80
2022/08/01 09:10:21;;;;;;;1.90;1.48;;;;;;;28.03;36.42;94647.97;5013613;28;20192;-84
2022/08/01 09:13:21;;;;;;;3.78;1.60;;;;;;;28.18;36.62;94671.06;4995618;28;20188;-82
2022/08/01 09:15:55;;;;;;;2.42;2.10;;;;;;;28.06;37.40;94642.72;4933670;29;20187;-83
2022/08/01 09:18:31;;;;;;;5.45;1.95;;;;;;;28.20;37.35;94668.78;4983816;28;20254;-84
2022/08/01 09:21:17;;;;;;;3.72;1.90;;;;;;;28.17;36.28;94658.63;5012113;28;20234;-80
2022/08/01 09:23:42;;;;;;;3.42;2.03;;;;;;;28.21;35.38;94665.75;5013231;28;20161;-81
2022/08/01 09:26:14;;;;;;;5.38;1.88;;;;;;;28.27;36.97;94655.56;5012785;28;20637;-81
2022/08/01 09:28:40;;;;;;;2.65;2.03;;;;;;;28.23;37.28;94638.38;5013147;28;20168;-84
2022/08/01 09:31:12;;;;;;;6.18;1.85;;;;;;;28.43;36.96;94660.09;4995325;28;20208;-81
2022/08/01 09:33:57;;;;;;;2.38;1.70;;;;;;;28.24;36.73;94659.72;5013178;28;20247;-84
2022/08/01 09:36:25;;;;;;;1.98;1.60;;;;;;;28.32;37.26;94648.03;4994919;28;20176;-80
2022/08/01 09:38:52;;;;;;;2.13;1.55;;;;;;;28.11;37.17;94639.81;5013081;28;20187;-81
2022/08/01 09:41:27;;;;;;;2.85;2.05;;;;;;;28.22;37.36;94666.56;5012936;28;20179;-80
2022/08/01 09:43:53;;;;;;;2.97;2.30;;;;;;;28.17;37.94;94637.78;5012405;28;21002;-80
2022/08/01 09:46:18;;;;;;;3.05;2.42;;;;;;;28.29;37.80;94664.94;5010596;28;20180;-79
2022/08/01 09:49:01;;;;;;;4.10;2.13;;;;;;;28.36;39.21;94661.72;5009446;28;20176;-79
2022/08/01 09:51:37;;;;;;;6.28;2.30;;;;;;;28.53;39.99;94661.63;5010311;28;20192;-79
2022/08/01 09:54:05;;;;;;;3.97;2.15;;;;;;;28.61;38.14;94668.91;5011022;28;20180;-79
2022/08/01 09:56:42;;;;;;;4.63;2.10;;;;;;;28.69;35.98;94664.53;4993013;28;20180;-79
2022/08/01 09:59:08;;;;;;;3.67;2.22;;;;;;;28.80;36.75;94657.63;5008822;28;20597;-79
2022/08/01 10:01:49;;;;;;;4.93;2.13;;;;;;;28.73;35.83;94660.03;5009226;28;20266;-79
2022/08/01 10:04:20;;;;;;;5.00;2.10;;;;;;;28.52;37.60;94636.44;5009108;28;20168;-79
2022/08/01 10:06:54;;;;;;;2.55;2.03;;;;;;;28.66;37.82;94659.75;5008933;28;20192;-79
2022/08/01 10:09:30;;;;;;;2.65;1.98;;;;;;;28.67;37.86;94659.44;5009143;28;20569;-79
2022/08/01 10:11:57;;;;;;;3.25;2.10;;;;;;;28.74;37.93;94662.41;5008534;28;20275;-79
2022/08/01 10:14:25;;;;;;;4.13;2.30;;;;;;;28.67;36.84;94656.72;4975766;28;20581;-79
2022/08/01 10:16:53;;;;;;;6.75;4.00;;;;;;;28.71;36.78;94673.94;5009736;28;20192;-79
2022/08/01 10:19:22;;;;;;;21.30;10.50;;;;;;;28.68;36.17;94662.94;5009440;28;20183;-80
2022/08/01 10:21:51;;;;;;;8.60;4.38;;;;;;;28.64;36.34;94645.75;5009488;28;20173;-79
2022/08/01 10:24:19;;;;;;;4.72;2.00;;;;;;;28.51;35.81;94629.44;4989206;28;20564;-79
2022/08/01 10:26:48;;;;;;;10.77;5.10;;;;;;;28.54;38.24;94639.59;5009552;28;20558;-79
2022/08/01 10:29:18;;;;;;;10.45;4.53;;;;;;;28.56;38.08;94636.56;5009484;28;20187;-79
2022/08/01 10:31:43;;;;;;;4.00;2.20;;;;;;;28.51;37.27;94640.25;4991922;28;20255;-79
2022/08/01 10:34:10;;;;;;;2.70;2.38;;;;;;;28.46;38.68;94639.66;5009825;28;20173;-79
2022/08/01 10:36:38;;;;;;;5.38;2.00;;;;;;;28.41;37.61;94635.22;5009150;28;20183;-79
2022/08/01 10:39:06;;;;;;;8.00;2.78;;;;;;;28.30;39.21;94619.69;5009425;28;20259;-79
2022/08/01 10:41:34;;;;;;;4.45;2.45;;;;;;;28.42;39.73;94636.03;5009528;28;20176;-79
2022/08/01 10:44:02;;;;;;;2.28;1.95;;;;;;;28.39;37.88;94615.00;5009408;28;20259;-79
2022/08/01 10:46:30;;;;;;;2.65;1.73;;;;;;;28.44;37.41;94618.34;5009658;28;20256;-79
2022/08/01 10:49:07;;;;;;;3.22;1.83;;;;;;;28.37;35.92;94607.19;4993545;28;20569;-79
2022/08/01 10:51:38;;;;;;;1.95;1.42;;;;;;;28.34;36.56;94607.09;5010471;28;20232;-79
2022/08/01 10:54:07;;;;;;;2.42;1.58;;;;;;;28.32;37.80;94620.94;5013225;28;20641;-79
2022/08/01 10:56:47;;;;;;;3.55;1.80;;;;;;;28.30;38.38;94615.06;5014045;28;20287;-79
2022/08/01 10:59:25;;;;;;;3.55;1.75;;;;;;;28.23;39.10;94608.56;5014047;28;20187;-80
2022/08/01 11:01:58;;;;;;;4.72;2.00;;;;;;;28.39;38.30;94618.50;5013765;28;20259;-80
2022/08/01 11:04:53;;;;;;;5.38;1.98;;;;;;;28.33;37.48;94616.31;5014958;28;20207;-79
2022/08/01 11:07:34;;;;;;;4.45;1.70;;;;;;;28.31;38.93;94611.22;5011775;28;20172;-79
2022/08/01 11:10:35;;;;;;;5.80;2.05;;;;;;;28.27;37.29;94615.72;5010912;28;20374;-79
2022/08/01 11:13:03;;;;;;;3.28;2.13;;;;;;;28.16;38.92;94595.56;5013568;28;20180;-79
2022/08/01 11:15:29;;;;;;;7.22;5.35;;;;;;;28.12;38.34;94586.47;5012407;28;20168;-79
2022/08/01 11:17:55;;;;;;;5.15;3.78;;;;;;;28.00;38.43;94589.91;5011066;28;20180;-79
2022/08/01 11:20:29;;;;;;;2.30;1.98;;;;;;;28.20;38.14;94626.25;5010014;28;20373;-80
2022/08/01 11:23:04;;;;;;;4.05;2.22;;;;;;;28.18;37.80;94616.91;5010574;28;20194;-79
2022/08/01 11:25:36;;;;;;;4.65;2.30;;;;;;;28.21;38.84;94627.06;5010351;28;20175;-79
2022/08/01 11:28:14;;;;;;;5.13;2.20;;;;;;;28.14;38.86;94617.50;5011081;28;20177;-79
2022/08/01 11:31:04;;;;;;;2.45;1.63;;;;;;;28.13;38.28;94620.53;5010493;28;20778;-80
2022/08/01 11:33:50;;;;;;;2.33;1.95;;;;;;;28.12;38.81;94616.25;5014053;28;20271;-80
2022/08/01 11:36:15;;;;;;;3.00;1.90;;;;;;;28.04;38.99;94615.19;5012911;28;20737;-83
2022/08/01 11:38:43;;;;;;;2.90;1.90;;;;;;;28.14;39.43;94605.91;5014414;28;20204;-79
2022/08/01 11:41:32;;;;;;;2.20;2.00;;;;;;;28.03;38.13;94581.09;5014599;28;20173;-79
2022/08/01 11:44:06;;;;;;;2.97;1.70;;;;;;;28.28;37.88;94608.41;5006930;28;20258;-78